createdAt,value
2022-10-12T00:01:07.041Z,8.50
2022-10-12T00:03:35.757Z,8.50
2022-10-12T00:06:07.938Z,8.50
2022-10-12T00:08:37.490Z,8.50
2022-10-12T00:11:08.018Z,8.50
2022-10-12T00:13:37.626Z,8.50
2022-10-12T00:16:07.551Z,8.60
2022-10-12T00:18:36.861Z,8.60
2022-10-12T00:21:07.841Z,8.60
2022-10-12T00:23:38.148Z,8.60
2022-10-12T00:26:09.483Z,8.70
2022-10-12T00:28:39.441Z,8.70
2022-10-12T00:31:10.341Z,8.70
2022-10-12T00:33:39.070Z,8.80
2022-10-12T00:36:18.053Z,8.80
2022-10-12T00:38:47.552Z,8.80
2022-10-12T00:41:18.078Z,8.80
2022-10-12T00:43:53.985Z,8.80
2022-10-12T00:46:32.512Z,8.80
2022-10-12T00:49:13.350Z,8.70
2022-10-12T00:51:44.489Z,8.80
2022-10-12T00:54:19.419Z,8.70
2022-10-12T00:56:49.642Z,8.80
2022-10-12T00:59:24.951Z,8.80
2022-10-12T01:01:53.214Z,8.80
2022-10-12T01:04:23.174Z,8.80
2022-10-12T01:06:53.133Z,8.80
2022-10-12T01:09:22.511Z,8.90
2022-10-12T01:11:50.750Z,8.80
2022-10-12T01:14:20.904Z,8.90
2022-10-12T01:16:57.744Z,8.80
2022-10-12T01:20:19.696Z,8.90
2022-10-12T01:23:04.258Z,8.90
2022-10-12T01:25:50.505Z,8.90
2022-10-12T01:28:29.925Z,8.90
2022-10-12T01:31:08.200Z,8.90
2022-10-12T01:33:46.300Z,8.90
2022-10-12T01:36:23.351Z,9.00
2022-10-12T01:39:04.548Z,9.00
2022-10-12T01:41:41.005Z,9.00
2022-10-12T01:44:09.136Z,9.10
2022-10-12T01:46:46.135Z,9.10
2022-10-12T01:49:18.026Z,9.20
2022-10-12T01:52:22.110Z,9.20
2022-10-12T01:55:27.426Z,9.20
2022-10-12T01:58:19.144Z,9.20
2022-10-12T02:01:01.469Z,9.30
2022-10-12T02:03:41.261Z,9.30
2022-10-12T02:06:16.528Z,9.30
2022-10-12T02:08:52.435Z,9.40
2022-10-12T02:11:23.991Z,9.40
2022-10-12T02:13:57.801Z,9.40
2022-10-12T02:16:38.468Z,9.50
2022-10-12T02:19:14.407Z,9.50
2022-10-12T02:21:43.429Z,9.50
2022-10-12T02:24:15.911Z,9.60
2022-10-12T02:26:48.891Z,9.60
2022-10-12T02:29:24.384Z,9.60
2022-10-12T02:31:59.436Z,9.70
2022-10-12T02:34:34.730Z,9.80
2022-10-12T02:37:10.614Z,9.80
2022-10-12T02:39:46.363Z,9.80
2022-10-12T02:42:20.990Z,9.80
2022-10-12T02:44:50.482Z,9.90
2022-10-12T02:47:21.044Z,9.90
2022-10-12T02:49:52.944Z,9.90
2022-10-12T02:52:21.313Z,9.90
2022-10-12T02:54:49.559Z,9.90
2022-10-12T02:57:17.665Z,9.90
2022-10-12T02:59:45.802Z,10.00
2022-10-12T03:02:14.066Z,10.00
2022-10-12T03:04:42.857Z,10.00
2022-10-12T03:07:12.276Z,10.10
2022-10-12T03:09:40.428Z,10.10
2022-10-12T03:12:08.659Z,10.10
2022-10-12T03:14:37.508Z,10.10
2022-10-12T03:17:06.328Z,10.10
2022-10-12T03:19:34.593Z,10.10
2022-10-12T03:22:02.805Z,10.20
2022-10-12T03:24:32.450Z,10.20
2022-10-12T03:27:01.254Z,10.20
2022-10-12T03:29:29.425Z,10.20
2022-10-12T03:31:57.625Z,10.20
2022-10-12T03:34:25.700Z,10.20
2022-10-12T03:36:53.764Z,10.30
2022-10-12T03:39:21.878Z,10.30
2022-10-12T03:41:51.290Z,10.30
2022-10-12T03:44:19.445Z,10.30
2022-10-12T03:46:47.491Z,10.30
2022-10-12T03:49:15.521Z,10.30
2022-10-12T03:51:43.660Z,10.30
2022-10-12T03:54:11.828Z,10.40
2022-10-12T03:56:40.128Z,10.40
2022-10-12T03:59:09.902Z,10.40
2022-10-12T04:01:38.354Z,10.40
2022-10-12T04:04:06.554Z,10.40
2022-10-12T04:06:34.660Z,10.40
2022-10-12T04:09:02.936Z,10.50
2022-10-12T04:11:31.132Z,10.40
2022-10-12T04:13:59.319Z,10.40
2022-10-12T04:16:31.074Z,10.40
2022-10-12T04:18:59.470Z,10.40
2022-10-12T04:21:31.733Z,10.40
2022-10-12T04:24:00.090Z,10.40
2022-10-12T04:26:28.104Z,10.40
2022-10-12T04:28:56.400Z,10.40
2022-10-12T04:31:24.672Z,10.40
2022-10-12T04:33:56.942Z,10.30
2022-10-12T04:36:25.715Z,10.30
2022-10-12T04:38:59.848Z,10.20
2022-10-12T04:41:29.469Z,10.20
2022-10-12T04:43:57.731Z,10.10
2022-10-12T04:46:25.979Z,10.00
2022-10-12T04:48:55.497Z,10.00
2022-10-12T04:51:23.640Z,10.00
2022-10-12T04:53:51.981Z,9.90
2022-10-12T04:56:20.476Z,9.90
2022-10-12T04:58:48.578Z,9.80
2022-10-12T05:01:16.790Z,9.80
2022-10-12T05:03:44.932Z,9.80
2022-10-12T05:06:14.541Z,9.70
2022-10-12T05:08:42.892Z,9.70
2022-10-12T05:11:11.305Z,9.70
2022-10-12T05:13:39.428Z,9.60
2022-10-12T05:16:08.213Z,9.50
2022-10-12T05:18:36.415Z,9.50
2022-10-12T05:21:04.874Z,9.50
2022-10-12T05:23:34.278Z,9.50
2022-10-12T05:26:02.471Z,9.40
2022-10-12T05:28:30.634Z,9.40
2022-10-12T05:30:58.736Z,9.40
2022-10-12T05:33:26.903Z,9.30
2022-10-12T05:35:56.621Z,9.30
2022-10-12T05:38:25.037Z,9.30
2022-10-12T05:41:00.049Z,9.20
2022-10-12T05:43:29.363Z,9.20
2022-10-12T05:45:57.723Z,9.20
2022-10-12T05:48:25.978Z,9.20
2022-10-12T05:50:54.618Z,9.20
2022-10-12T05:53:23.332Z,9.20
2022-10-12T05:55:57.799Z,9.20
2022-10-12T05:58:27.622Z,9.20
2022-10-12T06:00:56.531Z,9.20
2022-10-12T06:03:26.348Z,9.10
2022-10-12T06:05:54.919Z,9.10
2022-10-12T06:08:23.177Z,9.10
2022-10-12T06:10:53.908Z,9.00
2022-10-12T06:13:23.535Z,9.00
2022-10-12T06:15:52.332Z,9.00
2022-10-12T06:18:21.298Z,9.00
2022-10-12T06:20:56.462Z,9.00
2022-10-12T06:23:37.146Z,9.00
2022-10-12T06:26:05.320Z,8.90
2022-10-12T06:28:34.788Z,9.10
2022-10-12T06:31:02.901Z,9.10
2022-10-12T06:33:31.361Z,9.10
2022-10-12T06:35:59.633Z,9.20
2022-10-12T06:38:27.900Z,9.20
2022-10-12T06:40:56.361Z,9.30
2022-10-12T06:43:24.438Z,9.40
2022-10-12T06:45:53.828Z,9.40
2022-10-12T06:48:21.922Z,9.40
2022-10-12T06:50:49.973Z,9.50
2022-10-12T06:53:18.292Z,9.60
2022-10-12T06:55:46.796Z,9.60
2022-10-12T06:58:15.048Z,9.70
2022-10-12T07:00:43.251Z,9.70
2022-10-12T07:03:14.563Z,9.80
2022-10-12T07:05:42.753Z,9.90
2022-10-12T07:08:10.914Z,9.90
2022-10-12T07:10:39.157Z,10.00
2022-10-12T07:13:07.349Z,10.00
2022-10-12T07:15:35.549Z,10.10
2022-10-12T07:18:03.686Z,10.20
2022-10-12T07:20:33.404Z,10.30
2022-10-12T07:23:01.601Z,10.40
2022-10-12T07:25:30.096Z,10.50
2022-10-12T07:27:58.225Z,10.60
2022-10-12T07:30:26.505Z,10.70
2022-10-12T07:32:55.598Z,10.80
2022-10-12T07:35:23.802Z,10.80
2022-10-12T07:37:53.334Z,10.90
2022-10-12T07:40:21.726Z,11.00
2022-10-12T07:43:14.820Z,11.10
2022-10-12T07:45:38.353Z,11.20
2022-10-12T07:48:06.967Z,11.30
2022-10-12T07:50:35.074Z,11.40
2022-10-12T07:53:04.673Z,11.50
2022-10-12T07:55:33.035Z,11.60
2022-10-12T07:58:02.260Z,11.70
2022-10-12T08:00:30.776Z,11.80
2022-10-12T08:02:59.585Z,11.90
2022-10-12T08:05:28.455Z,12.00
2022-10-12T08:07:56.779Z,12.00
2022-10-12T08:10:26.283Z,12.10
2022-10-12T08:12:54.484Z,12.20
2022-10-12T08:15:22.639Z,12.30
2022-10-12T08:17:51.121Z,12.30
2022-10-12T08:20:19.493Z,12.50
2022-10-12T08:22:47.858Z,12.50
2022-10-12T08:25:16.126Z,12.60
2022-10-12T08:27:45.566Z,12.80
2022-10-12T08:30:14.811Z,12.80
2022-10-12T08:32:42.956Z,12.80
2022-10-12T08:35:11.154Z,12.80
2022-10-12T08:37:39.591Z,12.90
2022-10-12T08:40:15.081Z,12.90
2022-10-12T08:42:57.506Z,13.10
2022-10-12T08:45:51.975Z,13.10
2022-10-12T08:48:27.237Z,13.20
2022-10-12T08:51:00.287Z,13.30
2022-10-12T08:53:34.230Z,13.40
2022-10-12T08:56:02.435Z,13.50
2022-10-12T08:58:36.065Z,13.60
2022-10-12T09:01:17.057Z,13.60
2022-10-12T09:04:02.757Z,13.60
2022-10-12T09:06:35.382Z,13.60
2022-10-12T09:09:18.053Z,13.70
2022-10-12T09:12:09.250Z,13.90
2022-10-12T09:14:41.867Z,13.90
2022-10-12T09:17:27.607Z,14.00
2022-10-12T09:20:05.035Z,14.10
2022-10-12T09:22:36.108Z,14.00
2022-10-12T09:25:07.357Z,14.10
2022-10-12T09:27:36.265Z,14.20
2022-10-12T09:30:07.273Z,14.20
2022-10-12T09:33:03.444Z,14.30
2022-10-12T09:35:31.835Z,14.40
2022-10-12T09:38:01.240Z,14.40
2022-10-12T09:40:33.117Z,14.40
2022-10-12T09:43:04.122Z,14.40
2022-10-12T09:45:36.120Z,14.50
2022-10-12T09:48:14.358Z,14.60
2022-10-12T09:50:47.001Z,14.60
2022-10-12T09:53:25.016Z,14.70
2022-10-12T09:55:57.664Z,14.70
2022-10-12T09:58:28.925Z,14.80
2022-10-12T10:01:22.215Z,14.90
2022-10-12T10:04:09.775Z,14.90
2022-10-12T10:06:39.938Z,14.90
2022-10-12T10:09:27.441Z,15.00
2022-10-12T10:11:57.873Z,15.10
2022-10-12T10:14:26.390Z,15.20
2022-10-12T10:16:55.996Z,15.30
2022-10-12T10:19:26.429Z,15.50
2022-10-12T10:21:56.262Z,15.60
2022-10-12T10:24:31.857Z,15.70
2022-10-12T10:27:04.056Z,15.80
2022-10-12T10:29:37.883Z,16.00
2022-10-12T10:32:26.790Z,15.90
2022-10-12T10:35:08.091Z,16.00
2022-10-12T10:37:36.885Z,16.00
2022-10-12T10:40:06.776Z,16.00
2022-10-12T10:42:35.924Z,16.20
2022-10-12T10:45:08.688Z,16.20
2022-10-12T10:47:46.718Z,16.20
2022-10-12T10:50:27.609Z,16.30
2022-10-12T10:52:59.463Z,16.40
2022-10-12T10:55:43.719Z,16.40
2022-10-12T10:58:28.682Z,16.40
2022-10-12T11:01:10.581Z,16.30
2022-10-12T11:03:54.250Z,16.30
2022-10-12T11:06:36.265Z,16.30
2022-10-12T11:09:11.902Z,16.30
2022-10-12T11:11:43.163Z,16.20
2022-10-12T11:14:17.683Z,16.30
2022-10-12T11:16:53.657Z,16.40
2022-10-12T11:19:32.702Z,16.40
2022-10-12T11:22:06.121Z,16.30
2022-10-12T11:24:43.743Z,16.30
2022-10-12T11:27:18.898Z,16.30
2022-10-12T11:29:58.196Z,16.40
2022-10-12T11:32:41.507Z,16.50
2022-10-12T11:35:18.426Z,16.50
2022-10-12T11:37:54.695Z,16.40
2022-10-12T11:40:48.100Z,16.40
2022-10-12T11:43:23.324Z,16.30
2022-10-12T11:45:56.893Z,16.40
2022-10-12T11:48:32.534Z,16.40
2022-10-12T11:51:04.394Z,16.40
2022-10-12T11:53:51.886Z,16.60
2022-10-12T11:56:26.847Z,16.50
2022-10-12T11:59:04.057Z,16.50
2022-10-12T12:02:06.662Z,16.50
2022-10-12T12:04:42.249Z,16.40
2022-10-12T12:07:46.514Z,16.30
2022-10-12T12:11:06.485Z,16.40
2022-10-12T12:13:36.801Z,16.40
2022-10-12T12:16:33.753Z,16.30
2022-10-12T12:19:38.828Z,16.40
2022-10-12T12:22:32.620Z,16.40
2022-10-12T12:25:29.053Z,16.30
2022-10-12T12:28:00.954Z,16.30
2022-10-12T12:30:38.551Z,16.30
2022-10-12T12:33:29.633Z,16.30
2022-10-12T12:36:02.698Z,16.30
2022-10-12T12:38:36.058Z,16.20
2022-10-12T12:41:11.528Z,16.20
2022-10-12T12:44:04.364Z,16.30
2022-10-12T12:47:44.634Z,16.50
2022-10-12T12:50:35.072Z,16.50
2022-10-12T12:53:09.344Z,16.40
2022-10-12T12:56:00.160Z,16.30
2022-10-12T12:58:52.381Z,16.40
2022-10-12T13:01:42.554Z,16.40
2022-10-12T13:04:50.282Z,16.40
2022-10-12T13:07:48.171Z,16.40
2022-10-12T13:10:31.166Z,16.40
2022-10-12T13:13:35.519Z,16.20
2022-10-12T13:19:36.201Z,15.90
2022-10-12T13:22:13.945Z,15.80
2022-10-12T13:24:49.319Z,15.90
2022-10-12T13:27:25.454Z,15.90
2022-10-12T13:30:00.383Z,15.80
2022-10-12T13:32:45.635Z,15.70
2022-10-12T13:35:22.110Z,15.70
2022-10-12T13:38:03.035Z,15.80
2022-10-12T13:40:36.755Z,15.90
2022-10-12T13:43:33.145Z,15.90
2022-10-12T13:46:02.062Z,15.90
2022-10-12T13:48:58.339Z,15.80
2022-10-12T13:51:26.311Z,15.70
2022-10-12T13:53:54.665Z,15.70
2022-10-12T13:56:27.278Z,15.70
2022-10-12T13:59:03.167Z,15.60
2022-10-12T14:01:35.414Z,15.60
2022-10-12T14:04:09.284Z,15.70
2022-10-12T14:06:38.236Z,15.70
2022-10-12T14:09:13.578Z,15.90
2022-10-12T14:11:43.411Z,15.90
2022-10-12T14:14:21.336Z,16.00
2022-10-12T14:16:52.277Z,16.00
2022-10-12T14:19:36.269Z,16.00
2022-10-12T14:22:05.228Z,16.10
2022-10-12T14:24:36.783Z,16.10
2022-10-12T14:27:08.287Z,15.90
2022-10-12T14:29:44.065Z,15.80
2022-10-12T14:32:38.658Z,15.70
2022-10-12T14:35:31.633Z,15.80
2022-10-12T14:37:59.908Z,15.70
2022-10-12T14:40:38.601Z,15.80
2022-10-12T14:43:23.982Z,15.80
2022-10-12T14:45:53.020Z,15.80
2022-10-12T14:48:23.673Z,15.90
2022-10-12T14:50:53.819Z,15.90
2022-10-12T14:53:22.462Z,15.80
2022-10-12T14:55:53.761Z,15.80
2022-10-12T14:58:22.815Z,15.80
2022-10-12T15:00:51.117Z,15.80
2022-10-12T15:03:20.283Z,15.80
2022-10-12T15:05:48.517Z,15.70
2022-10-12T15:08:17.934Z,15.70
2022-10-12T15:10:51.420Z,15.70
2022-10-12T15:13:19.717Z,15.70
2022-10-12T15:15:49.633Z,15.60
2022-10-12T15:18:17.693Z,15.50
2022-10-12T15:20:49.318Z,15.50
2022-10-12T15:23:19.718Z,15.50
2022-10-12T15:25:53.589Z,15.40
2022-10-12T15:28:22.602Z,15.20
2022-10-12T15:31:16.358Z,15.20
2022-10-12T15:33:39.944Z,15.10
2022-10-12T15:36:09.617Z,15.00
2022-10-12T15:38:39.250Z,15.00
2022-10-12T15:41:15.575Z,15.00
2022-10-12T15:43:44.048Z,14.90
2022-10-12T15:46:12.656Z,14.80
2022-10-12T15:48:41.715Z,14.80
2022-10-12T15:51:19.107Z,14.70
2022-10-12T15:53:48.608Z,14.70
2022-10-12T15:56:18.000Z,14.60
2022-10-12T15:58:47.933Z,14.60
2022-10-12T16:01:18.823Z,14.60
2022-10-12T16:03:48.294Z,14.50
2022-10-12T16:06:16.938Z,14.40
2022-10-12T16:08:45.191Z,14.40
2022-10-12T16:11:17.721Z,14.40
2022-10-12T16:13:52.577Z,14.30
2022-10-12T16:16:24.960Z,14.20
2022-10-12T16:18:54.137Z,14.20
2022-10-12T16:21:22.389Z,14.10
2022-10-12T16:23:50.477Z,14.00
2022-10-12T16:26:20.221Z,13.90
2022-10-12T16:28:48.569Z,13.90
2022-10-12T16:31:18.293Z,13.80
2022-10-12T16:33:46.600Z,13.70
2022-10-12T16:36:17.832Z,13.70
2022-10-12T16:38:46.226Z,13.60
2022-10-12T16:41:17.051Z,13.50
2022-10-12T16:43:46.663Z,13.30
2022-10-12T16:46:14.754Z,13.40
2022-10-12T16:48:44.427Z,13.30
2022-10-12T16:51:14.336Z,13.20
2022-10-12T16:53:42.601Z,13.10
2022-10-12T16:56:11.581Z,13.00
2022-10-12T16:58:39.650Z,13.00
2022-10-12T17:01:13.878Z,12.90
2022-10-12T17:03:42.553Z,12.80
2022-10-12T17:06:11.607Z,12.80
2022-10-12T17:08:40.036Z,12.70
2022-10-12T17:11:10.140Z,12.60
2022-10-12T17:13:39.699Z,12.60
2022-10-12T17:16:34.747Z,12.50
2022-10-12T17:19:04.534Z,12.50
2022-10-12T17:21:32.931Z,12.40
2022-10-12T17:24:03.135Z,12.30
2022-10-12T17:26:31.591Z,12.20
2022-10-12T17:28:59.847Z,12.10
2022-10-12T17:31:28.618Z,12.00
2022-10-12T17:33:58.156Z,11.90
2022-10-12T17:36:28.699Z,11.90
2022-10-12T17:38:59.514Z,11.80
2022-10-12T17:41:29.890Z,11.80
2022-10-12T17:43:58.760Z,11.70
2022-10-12T17:46:28.030Z,11.60
2022-10-12T17:48:57.340Z,11.60
2022-10-12T17:51:27.354Z,11.60
2022-10-12T17:53:55.577Z,11.50
2022-10-12T17:56:23.986Z,11.40
2022-10-12T17:58:55.514Z,11.40
2022-10-12T18:01:24.534Z,11.60
2022-10-12T18:03:55.312Z,11.50
2022-10-12T18:06:25.440Z,11.40
2022-10-12T18:08:56.328Z,11.30
2022-10-12T18:11:25.357Z,11.30
2022-10-12T18:13:56.444Z,11.20
2022-10-12T18:16:26.914Z,11.20
2022-10-12T18:18:55.792Z,11.10
2022-10-12T18:21:26.491Z,11.00
2022-10-12T18:23:56.753Z,11.00
2022-10-12T18:26:26.447Z,10.90
2022-10-12T18:28:56.507Z,10.90
2022-10-12T18:31:27.646Z,10.90
2022-10-12T18:33:57.894Z,10.90
2022-10-12T18:36:27.305Z,10.90
2022-10-12T18:38:57.178Z,10.80
2022-10-12T18:41:26.829Z,10.70
2022-10-12T18:43:59.905Z,10.70
2022-10-12T18:46:31.138Z,10.70
2022-10-12T18:49:01.362Z,10.70
2022-10-12T18:51:32.173Z,10.60
2022-10-12T18:54:03.400Z,10.60
2022-10-12T18:56:34.403Z,10.60
2022-10-12T18:59:03.720Z,10.50
2022-10-12T19:01:32.957Z,10.50
2022-10-12T19:04:02.707Z,10.50
2022-10-12T19:06:34.227Z,10.50
2022-10-12T19:09:04.034Z,10.50
2022-10-12T19:11:32.771Z,10.50
2022-10-12T19:14:04.138Z,10.50
2022-10-12T19:16:33.665Z,10.50
2022-10-12T19:19:05.526Z,10.50
2022-10-12T19:21:34.678Z,10.50
2022-10-12T19:24:06.432Z,10.60
2022-10-12T19:26:35.529Z,10.60
2022-10-12T19:29:03.917Z,10.60
2022-10-12T19:31:35.586Z,10.60
2022-10-12T19:34:07.714Z,10.60
2022-10-12T19:36:37.459Z,10.60
2022-10-12T19:39:10.233Z,10.60
2022-10-12T19:41:38.730Z,10.60
2022-10-12T19:44:07.387Z,10.60
2022-10-12T19:46:35.592Z,10.60
2022-10-12T19:49:03.984Z,10.60
2022-10-12T19:51:32.919Z,10.60
2022-10-12T19:54:04.168Z,10.60
2022-10-12T19:56:34.555Z,10.50
2022-10-12T19:59:02.798Z,10.50
2022-10-12T20:01:34.941Z,10.50
2022-10-12T20:04:07.028Z,10.50
2022-10-12T20:06:35.407Z,10.50
2022-10-12T20:09:05.051Z,10.50
2022-10-12T20:11:34.923Z,10.50
2022-10-12T20:14:03.368Z,10.50
2022-10-12T20:16:34.965Z,10.50
2022-10-12T20:19:04.069Z,10.50
2022-10-12T20:21:32.255Z,10.50
2022-10-12T20:24:00.440Z,10.50
2022-10-12T20:26:28.947Z,10.40
2022-10-12T20:28:58.411Z,10.40
2022-10-12T20:31:27.959Z,10.40
2022-10-12T20:33:58.332Z,10.30
2022-10-12T20:36:29.813Z,10.30
2022-10-12T20:38:59.094Z,10.30
2022-10-12T20:41:28.098Z,10.30
2022-10-12T20:43:59.594Z,10.30
2022-10-12T20:46:29.652Z,10.30
2022-10-12T20:49:00.674Z,10.30
2022-10-12T20:51:31.761Z,10.30
2022-10-12T20:54:01.051Z,10.30
2022-10-12T20:56:30.422Z,10.30
2022-10-12T20:59:01.164Z,10.30
2022-10-12T21:01:29.533Z,10.30
2022-10-12T21:03:57.850Z,10.30
2022-10-12T21:06:26.059Z,10.30
2022-10-12T21:08:58.077Z,10.30
2022-10-12T21:11:26.736Z,10.30
2022-10-12T21:13:56.451Z,10.30
2022-10-12T21:16:26.979Z,10.30
2022-10-12T21:18:56.287Z,10.30
2022-10-12T21:21:24.968Z,10.30
2022-10-12T21:23:55.465Z,10.30
2022-10-12T21:26:25.760Z,10.30
2022-10-12T21:28:54.204Z,10.30
2022-10-12T21:31:24.456Z,10.40
2022-10-12T21:33:55.782Z,10.40
2022-10-12T21:36:27.311Z,10.30
2022-10-12T21:38:56.202Z,10.30
2022-10-12T21:41:28.071Z,10.30
2022-10-12T21:43:58.125Z,10.30
2022-10-12T21:46:29.180Z,10.30
2022-10-12T21:49:00.571Z,10.30
2022-10-12T21:51:30.839Z,10.30
2022-10-12T21:53:59.298Z,10.30
2022-10-12T21:56:29.752Z,10.30
2022-10-12T21:59:00.525Z,10.30
2022-10-12T22:01:31.936Z,10.40
2022-10-12T22:04:03.451Z,10.30
2022-10-12T22:06:32.165Z,10.40
2022-10-12T22:09:05.592Z,10.30
2022-10-12T22:11:36.209Z,10.30
2022-10-12T22:14:06.745Z,10.30
2022-10-12T22:16:36.630Z,10.30
2022-10-12T22:19:09.110Z,10.30
2022-10-12T22:21:37.806Z,10.30
2022-10-12T22:24:06.960Z,10.30
2022-10-12T22:26:35.250Z,10.40
2022-10-12T22:29:05.146Z,10.30
2022-10-12T22:31:33.246Z,10.30
2022-10-12T22:34:01.650Z,10.20
2022-10-12T22:36:33.837Z,10.20
2022-10-12T22:39:04.398Z,10.20
2022-10-12T22:41:32.682Z,10.20
2022-10-12T22:44:00.809Z,10.20
2022-10-12T22:46:29.088Z,10.10
2022-10-12T22:48:57.371Z,10.20
2022-10-12T22:51:33.107Z,10.20
2022-10-12T22:54:02.857Z,10.20
2022-10-12T22:56:32.241Z,10.20
2022-10-12T22:59:03.797Z,10.20
2022-10-12T23:01:31.959Z,10.20
2022-10-12T23:04:00.432Z,10.20
2022-10-12T23:06:28.673Z,10.30
2022-10-12T23:08:58.579Z,10.30
2022-10-12T23:11:29.647Z,10.40
2022-10-12T23:13:59.375Z,10.40
2022-10-12T23:16:30.778Z,10.40
2022-10-12T23:19:02.518Z,10.40
2022-10-12T23:21:33.330Z,10.50
2022-10-12T23:24:04.849Z,10.40
2022-10-12T23:26:33.923Z,10.40
2022-10-12T23:29:02.296Z,10.40
2022-10-12T23:31:32.040Z,10.40
2022-10-12T23:34:05.709Z,10.50
2022-10-12T23:36:35.509Z,10.50
2022-10-12T23:39:06.462Z,10.50
2022-10-12T23:41:34.632Z,10.60
2022-10-12T23:44:03.458Z,10.60
2022-10-12T23:46:31.610Z,10.60
2022-10-12T23:48:59.988Z,10.60
2022-10-12T23:51:34.236Z,10.50
2022-10-12T23:54:03.935Z,10.60
2022-10-12T23:56:32.192Z,10.50
2022-10-12T23:59:02.437Z,10.50
